Portada
METAR-TAF:

METAR-TAF

Aeroports :

Horta, Açores, Portugal

latitud: 38-31N, longitud: 028-43W, altitud: 40 m

Observació

L'informe es va fer fa 16 minuts, a les 11:00 UTC
Vent 7 kt del Est/Nord-Est, variant entre Nord i Est/Sud-Est
Temperatura 18°C
Humitat 64%
Pressió 1028 hPa
Visibilitat 10 km o més
Escasses núvols a una alçada de 2000 ft

METAR: LPHR 251100Z 06007KT 010V120 9999 FEW020 18/11 Q1028

Hora: 11:16 (11:16 UTC)

Pronòstic

L'informe es va fer fa 3 hores i 16 minuts, a les 08:00 UTC
Pronòstic vàlid del 25 a les 09 UTC al 25 a les 18 UTC
Vent 10 kt del Nord-Est
Visibilitat 10 km o més
Núvols disperses a una alçada de 2000 ft
Temporalment
l' 25 a les 09 UTC al 25 a les 18 UTC
Escasses núvols a una alçada de 1500 ft
Cel ennuvolat a una alçada de 3000 ft

TAF: LPHR 250800Z 2509/2518 04010KT 9999 SCT020 TEMPO 2509/2518 FEW015 BKN030

Observacions i pronòstics meteorològics de més de 4000 aeroports (METAR i TAF).

Les estacions disponibles són els punts grocs i vermells al mapa.

Posi el ratolí al punt desitjat per veure el nom de l'estació.

Feu clic per veure les observacions i els pronòstics meteorològics.

Per canviar el mapa: feu clic els botons verds amb una creu de color negre per apropar; al botó verd amb un guió per allunyar la imatge; o en les fletxes verdes per a mapes adjacents.


METAR-TAF: